Time;durP1;ratioP1;P1;durP2;ratioP2;P2;SDS_P1;SDS_P2;PMS_P1;PMS_P2;Temp;Humidity;BMP_temperature;BMP_pressure;BME280_temperature;BME280_humidity;BME280_pressure;Samples;Min_cycle;Max_cycle;Signal;HPM_P1;HPM_P2
2022/09/17 00:02:21;;;;;;;2.70;1.40;;;;;;;14.92;53.35;99087.06;4880225;28;97129;-83
2022/09/17 00:04:48;;;;;;;4.47;1.45;;;;;;;15.04;53.38;99107.34;4864579;28;99727;-83
2022/09/17 00:07:14;;;;;;;6.55;1.88;;;;;;;14.97;53.33;99100.81;4879332;28;97343;-83
2022/09/17 00:09:40;;;;;;;3.65;1.60;;;;;;;14.98;53.70;99099.00;4875236;28;99368;-81
2022/09/17 00:12:05;;;;;;;2.88;1.42;;;;;;;14.88;53.56;99090.91;4877859;28;97093;-82
2022/09/17 00:14:31;;;;;;;3.15;1.27;;;;;;;14.98;53.26;99104.28;4865115;28;101280;-81
2022/09/17 00:16:56;;;;;;;3.33;1.55;;;;;;;14.95;53.35;99107.97;4878719;28;101288;-81
2022/09/17 00:19:23;;;;;;;2.65;1.20;;;;;;;14.90;53.52;99097.75;4897497;28;96893;-82
2022/09/17 00:21:49;;;;;;;4.00;1.60;;;;;;;14.93;53.50;99100.19;4878356;28;98312;-81
2022/09/17 00:24:16;;;;;;;2.47;1.40;;;;;;;14.82;53.58;99080.75;4877426;28;97809;-83
2022/09/17 00:26:42;;;;;;;4.10;1.30;;;;;;;14.88;53.35;99097.00;4871085;28;101300;-83
2022/09/17 00:29:08;;;;;;;4.78;1.30;;;;;;;14.86;53.57;99096.28;4861510;28;96970;-83
2022/09/17 00:31:34;;;;;;;2.80;1.25;;;;;;;14.87;53.49;99089.22;4865808;28;97350;-83
2022/09/17 00:34:00;;;;;;;3.35;1.40;;;;;;;14.87;53.60;99100.63;4880502;28;101325;-81
2022/09/17 00:36:26;;;;;;;1.88;0.98;;;;;;;14.81;53.42;99081.72;4877101;28;101132;-84
2022/09/17 00:38:57;;;;;;;3.83;1.50;;;;;;;14.69;53.95;99068.44;4896588;28;97820;-81
2022/09/17 00:41:24;;;;;;;2.70;1.17;;;;;;;14.75;53.82;99076.84;4878640;28;97679;-81
2022/09/17 00:43:53;;;;;;;4.13;1.00;;;;;;;14.67;53.95;99066.84;4870759;28;101976;-81
2022/09/17 00:46:35;;;;;;;3.08;1.42;;;;;;;14.62;53.76;99069.81;4878653;28;101380;-82
2022/09/17 00:49:04;;;;;;;3.08;1.10;;;;;;;14.73;53.96;99086.69;4890947;28;97010;-82
2022/09/17 00:51:35;;;;;;;3.78;1.45;;;;;;;14.73;53.96;99090.19;4880214;28;97396;-83
2022/09/17 00:54:02;;;;;;;4.65;1.25;;;;;;;14.70;54.12;99093.03;4879391;28;98569;-83
2022/09/17 00:56:32;;;;;;;2.25;1.30;;;;;;;14.70;53.70;99088.59;4880347;28;100991;-83
2022/09/17 00:59:00;;;;;;;3.40;1.17;;;;;;;14.69;54.06;99091.38;4878855;28;96835;-83
2022/09/17 01:01:25;;;;;;;2.97;1.17;;;;;;;14.63;54.24;99091.78;4876585;28;97991;-84
2022/09/17 01:03:51;;;;;;;3.65;0.90;;;;;;;14.60;53.95;99092.84;4888006;28;101288;-83
2022/09/17 01:06:27;;;;;;;4.18;1.40;;;;;;;14.67;53.50;99091.47;4866966;28;101514;-84
2022/09/17 01:09:17;;;;;;;2.00;1.00;;;;;;;14.54;53.51;99069.50;4894568;28;96743;-84
2022/09/17 01:11:51;;;;;;;1.92;1.02;;;;;;;14.67;53.38;99098.53;4896833;28;96761;-83
2022/09/17 01:14:32;;;;;;;5.88;1.30;;;;;;;14.54;53.31;99066.84;4894125;28;101418;-81
2022/09/17 01:17:19;;;;;;;1.65;0.90;;;;;;;14.65;53.31;99092.53;4889327;28;101778;-81
2022/09/17 01:19:48;;;;;;;3.85;1.30;;;;;;;14.69;53.16;99096.66;4889904;28;97453;-82
2022/09/17 01:22:22;;;;;;;3.10;1.27;;;;;;;14.68;52.59;99087.84;4913468;28;96913;-83
2022/09/17 01:25:02;;;;;;;2.22;1.10;;;;;;;14.68;53.04;99095.78;4863805;28;100859;-83
2022/09/17 01:27:51;;;;;;;5.57;1.50;;;;;;;14.66;53.01;99083.63;4880187;28;101096;-83
2022/09/17 01:30:28;;;;;;;4.55;1.40;;;;;;;14.63;53.34;99082.06;4864569;28;97520;-83
2022/09/17 01:32:56;;;;;;;3.25;1.20;;;;;;;14.64;53.42;99085.56;4905638;28;97197;-83
2022/09/17 01:35:25;;;;;;;5.03;1.40;;;;;;;14.63;53.34;99079.44;4889821;28;101588;-83
2022/09/17 01:38:02;;;;;;;2.83;1.23;;;;;;;14.56;53.63;99072.88;4909900;28;97564;-81
2022/09/17 01:40:36;;;;;;;1.98;0.85;;;;;;;14.60;53.42;99079.66;4889177;28;97057;-84
2022/09/17 01:43:20;;;;;;;5.13;1.40;;;;;;;14.60;53.27;99079.66;4874632;28;96859;-83
2022/09/17 01:45:58;;;;;;;3.30;1.42;;;;;;;14.57;53.88;99079.84;4879195;28;101400;-84
2022/09/17 01:48:26;;;;;;;2.30;1.02;;;;;;;14.58;53.96;99088.63;4885237;28;97448;-81
2022/09/17 01:50:58;;;;;;;3.90;1.40;;;;;;;14.55;54.14;99096.78;4878477;28;96831;-84
2022/09/17 01:53:31;;;;;;;3.60;1.17;;;;;;;14.40;54.30;99077.53;4863906;28;96990;-83
2022/09/17 01:55:58;;;;;;;2.65;1.30;;;;;;;14.38;54.70;99082.06;4879179;28;97707;-83
2022/09/17 01:58:27;;;;;;;5.22;1.27;;;;;;;14.36;54.60;99083.94;4880680;28;97430;-83
2022/09/17 02:01:00;;;;;;;4.97;1.02;;;;;;;14.32;54.50;99077.22;4880728;28;97439;-83
2022/09/17 02:03:39;;;;;;;1.23;0.90;;;;;;;14.16;54.60;99059.75;4862906;28;97053;-84
2022/09/17 02:06:28;;;;;;;6.60;1.58;;;;;;;14.17;55.20;99060.63;4890472;28;101316;-83
2022/09/17 02:08:58;;;;;;;2.17;1.00;;;;;;;14.21;55.32;99070.84;4879043;28;101473;-83
2022/09/17 02:11:23;;;;;;;6.60;1.38;;;;;;;14.23;55.21;99076.88;4896570;28;97181;-83
2022/09/17 02:13:54;;;;;;;3.22;1.35;;;;;;;14.15;55.37;99079.19;4879874;28;97865;-83
2022/09/17 02:16:29;;;;;;;1.00;0.90;;;;;;;14.11;55.55;99084.78;4896363;28;98051;-84
2022/09/17 02:19:00;;;;;;;4.95;1.20;;;;;;;14.08;55.54;99072.66;4880145;28;100924;-84
2022/09/17 02:22:03;;;;;;;3.17;1.10;;;;;;;13.91;55.70;99051.88;4881222;28;97256;-83
2022/09/17 02:24:58;;;;;;;1.95;1.30;;;;;;;14.07;55.68;99080.66;4866166;28;97093;-83
2022/09/17 02:27:23;;;;;;;2.35;1.02;;;;;;;14.01;56.09;99085.41;4872057;28;100218;-83
2022/09/17 02:29:49;;;;;;;2.60;1.30;;;;;;;13.88;56.17;99062.63;4893282;28;97613;-84
2022/09/17 02:32:15;;;;;;;1.77;1.30;;;;;;;13.87;55.97;99064.38;4879291;28;96887;-83
2022/09/17 02:34:41;;;;;;;3.55;1.27;;;;;;;13.96;56.25;99087.53;4874366;28;100512;-84
2022/09/17 02:37:06;;;;;;;2.22;1.17;;;;;;;13.96;55.88;99084.03;4894594;28;98057;-84
2022/09/17 02:39:32;;;;;;;4.22;1.88;;;;;;;13.87;56.60;99068.81;4876148;28;97354;-83
2022/09/17 02:42:18;;;;;;;2.63;1.20;;;;;;;13.93;56.24;99078.97;4857018;28;97205;-83
2022/09/17 02:44:44;;;;;;;1.58;1.08;;;;;;;13.90;56.20;99074.72;4895499;28;97734;-83
2022/09/17 02:47:21;;;;;;;2.70;1.50;;;;;;;13.91;56.20;99073.81;4894835;28;97841;-84
2022/09/17 02:49:59;;;;;;;3.15;1.58;;;;;;;13.91;56.16;99062.41;4878506;28;100900;-83
2022/09/17 02:52:51;;;;;;;1.35;1.00;;;;;;;13.90;56.60;99069.47;4873709;28;97249;-84
2022/09/17 02:55:21;;;;;;;5.88;1.33;;;;;;;13.75;56.33;99041.47;4884412;28;97428;-83
2022/09/17 02:57:50;;;;;;;4.13;1.27;;;;;;;13.90;56.06;99064.19;4860641;28;101216;-83
2022/09/17 03:00:20;;;;;;;2.13;1.20;;;;;;;13.77;56.46;99032.53;4894973;28;101527;-83
2022/09/17 03:03:04;;;;;;;3.08;1.40;;;;;;;13.95;56.79;99056.81;4875521;28;97119;-83
2022/09/17 03:05:30;;;;;;;2.38;1.10;;;;;;;13.91;56.71;99057.13;4891709;28;97368;-84
2022/09/17 03:07:56;;;;;;;3.95;1.50;;;;;;;13.87;56.56;99043.28;4892076;28;97051;-83
2022/09/17 03:10:22;;;;;;;5.03;1.63;;;;;;;13.97;56.65;99062.84;4868712;28;101442;-83
2022/09/17 03:12:48;;;;;;;5.85;1.50;;;;;;;13.87;57.01;99035.38;4863863;28;97470;-83
2022/09/17 03:15:13;;;;;;;2.50;1.30;;;;;;;13.96;56.69;99055.88;4863606;28;97155;-83
2022/09/17 03:17:39;;;;;;;3.83;1.10;;;;;;;13.90;56.63;99039.59;4883095;28;98234;-83
2022/09/17 03:20:05;;;;;;;2.92;1.33;;;;;;;13.88;56.98;99037.09;4897635;28;97579;-84
2022/09/17 03:22:30;;;;;;;3.17;1.45;;;;;;;14.05;57.04;99057.03;4879105;28;98263;-83
2022/09/17 03:24:56;;;;;;;2.20;1.20;;;;;;;14.08;57.21;99056.84;4877219;28;97485;-84
2022/09/17 03:27:22;;;;;;;3.85;1.50;;;;;;;14.09;56.74;99062.94;4872393;28;101305;-83
2022/09/17 03:29:47;;;;;;;2.80;1.30;;;;;;;13.94;56.88;99041.94;4882016;28;101429;-83
2022/09/17 03:32:13;;;;;;;2.33;1.30;;;;;;;14.10;56.58;99073.38;4865661;28;96823;-84
2022/09/17 03:34:38;;;;;;;4.80;1.15;;;;;;;14.04;56.75;99060.63;4865223;28;98066;-84
2022/09/17 03:37:04;;;;;;;1.58;1.02;;;;;;;14.07;56.97;99068.31;4878124;28;101710;-84
2022/09/17 03:39:29;;;;;;;4.15;1.40;;;;;;;14.14;57.16;99071.41;4881992;28;97667;-84
2022/09/17 03:41:55;;;;;;;2.65;1.23;;;;;;;14.14;57.41;99072.25;4896823;28;96787;-83
2022/09/17 03:44:22;;;;;;;3.75;1.15;;;;;;;14.09;57.88;99063.78;4881170;28;96858;-83
2022/09/17 03:46:48;;;;;;;1.77;1.20;;;;;;;14.07;58.09;99068.31;4896415;28;97705;-83
2022/09/17 03:49:14;;;;;;;2.28;1.20;;;;;;;14.11;58.39;99069.81;4865877;28;100996;-84
2022/09/17 03:51:39;;;;;;;4.18;1.30;;;;;;;13.98;59.02;99050.47;4863742;28;97269;-83
2022/09/17 03:54:05;;;;;;;2.13;1.30;;;;;;;14.09;58.91;99074.34;4881167;28;96952;-83
2022/09/17 03:56:30;;;;;;;3.35;1.58;;;;;;;14.09;59.09;99068.22;4878562;28;98074;-83
2022/09/17 03:59:00;;;;;;;2.25;1.35;;;;;;;14.07;59.46;99063.03;4879374;28;97511;-84
2022/09/17 04:01:26;;;;;;;5.05;1.38;;;;;;;14.07;59.51;99060.41;4882038;28;96871;-83
2022/09/17 04:03:52;;;;;;;2.78;1.10;;;;;;;14.04;59.33;99052.69;4896201;28;97341;-84
2022/09/17 04:06:17;;;;;;;2.60;1.25;;;;;;;14.06;59.43;99056.09;4865175;28;101687;-84
2022/09/17 04:08:43;;;;;;;2.15;1.13;;;;;;;14.05;59.18;99064.97;4877873;28;100028;-84
2022/09/17 04:11:08;;;;;;;3.28;1.45;;;;;;;14.07;59.77;99060.41;4897255;28;97206;-83
2022/09/17 04:13:34;;;;;;;3.22;1.45;;;;;;;14.06;59.49;99056.09;4880391;28;96988;-83
2022/09/17 04:16:00;;;;;;;4.70;1.50;;;;;;;14.08;59.52;99061.25;4878565;28;100916;-84
2022/09/17 04:18:25;;;;;;;2.25;1.30;;;;;;;14.03;59.28;99057.13;4879936;28;98209;-83
2022/09/17 04:20:51;;;;;;;3.05;2.10;;;;;;;14.02;59.79;99051.94;4877828;28;96815;-84
2022/09/17 04:23:17;;;;;;;2.60;1.48;;;;;;;13.96;59.83;99036.53;4880494;28;97681;-84
2022/09/17 04:25:43;;;;;;;3.45;1.45;;;;;;;14.02;59.68;99044.03;4876114;28;101082;-83
2022/09/17 04:28:08;;;;;;;2.33;1.38;;;;;;;14.03;59.09;99043.94;4879319;28;101507;-83
2022/09/17 04:30:34;;;;;;;3.90;1.48;;;;;;;13.97;59.34;99043.53;4885035;28;97189;-84
2022/09/17 04:32:59;;;;;;;3.03;1.27;;;;;;;14.02;59.32;99052.81;4876990;28;98119;-83
2022/09/17 04:35:25;;;;;;;2.42;1.50;;;;;;;14.02;59.37;99050.19;4878786;28;102239;-84
2022/09/17 04:37:54;;;;;;;5.00;1.40;;;;;;;14.04;59.50;99060.63;4862757;28;101873;-83
2022/09/17 04:40:21;;;;;;;2.65;1.35;;;;;;;14.06;58.87;99057.88;4861147;28;96786;-84
2022/09/17 04:42:47;;;;;;;4.10;1.20;;;;;;;14.08;59.34;99066.53;4869655;28;96808;-83
2022/09/17 04:45:12;;;;;;;2.60;1.17;;;;;;;14.02;59.58;99057.22;4881023;28;101659;-83
2022/09/17 04:47:38;;;;;;;2.78;1.30;;;;;;;14.04;59.74;99057.97;4882568;28;97446;-84
2022/09/17 04:50:04;;;;;;;4.88;1.70;;;;;;;13.80;60.57;99019.13;4859023;28;97276;-84
2022/09/17 04:52:30;;;;;;;2.97;1.80;;;;;;;13.98;60.40;99050.47;4878448;28;97021;-83
2022/09/17 04:54:55;;;;;;;3.40;1.50;;;;;;;13.97;60.65;99051.44;4860056;28;101325;-84
2022/09/17 04:57:39;;;;;;;1.70;1.08;;;;;;;13.98;60.72;99055.75;4888942;28;97485;-83
2022/09/17 05:00:09;;;;;;;4.03;1.30;;;;;;;13.93;60.46;99044.66;4896786;28;96694;-84
2022/09/17 05:02:35;;;;;;;4.28;1.30;;;;;;;14.00;60.45;99065.25;4871720;28;96916;-83
2022/09/17 05:05:00;;;;;;;13.73;1.80;;;;;;;14.01;60.34;99068.75;4860338;28;101094;-83
2022/09/17 05:07:26;;;;;;;2.42;1.50;;;;;;;14.00;60.37;99065.25;4880897;28;100882;-84
2022/09/17 05:09:52;;;;;;;7.70;1.50;;;;;;;13.98;60.45;99059.22;4866477;28;97030;-83
2022/09/17 05:12:18;;;;;;;3.10;1.30;;;;;;;14.03;59.98;99062.41;4881042;28;97430;-83
2022/09/17 05:14:44;;;;;;;2.97;1.42;;;;;;;14.02;60.12;99059.88;4880825;28;101415;-84
2022/09/17 05:17:09;;;;;;;3.45;1.60;;;;;;;14.01;60.04;99061.66;4880043;28;101182;-83
2022/09/17 05:19:35;;;;;;;1.85;1.00;;;;;;;13.98;60.24;99053.97;4896876;28;97187;-84
2022/09/17 05:22:00;;;;;;;3.50;1.33;;;;;;;14.01;60.09;99055.53;4895702;28;97334;-83
2022/09/17 05:24:26;;;;;;;3.08;1.20;;;;;;;14.04;60.23;99057.97;4895682;28;98461;-84
2022/09/17 05:26:52;;;;;;;7.45;1.40;;;;;;;14.02;60.57;99054.59;4863636;28;99979;-83
2022/09/17 05:29:18;;;;;;;2.13;1.20;;;;;;;14.02;60.66;99047.53;4884877;28;97171;-84
2022/09/17 05:31:43;;;;;;;2.65;1.33;;;;;;;14.03;60.54;99054.50;4878129;28;97140;-83
2022/09/17 05:34:09;;;;;;;3.38;1.35;;;;;;;14.01;60.65;99042.34;4865199;28;97964;-84
2022/09/17 05:36:34;;;;;;;3.60;1.10;;;;;;;13.79;60.97;99012.19;4886909;28;98440;-81
2022/09/17 05:39:00;;;;;;;5.30;1.70;;;;;;;14.09;60.35;99049.75;4892466;28;96773;-81
2022/09/17 05:41:25;;;;;;;7.78;1.50;;;;;;;14.13;60.19;99059.13;4868199;28;96940;-83
2022/09/17 05:43:51;;;;;;;4.50;1.40;;;;;;;14.16;60.30;99065.03;4852037;28;101907;-82
2022/09/17 05:46:16;;;;;;;4.20;1.40;;;;;;;14.17;60.59;99065.91;4881518;28;97668;-82
2022/09/17 05:48:42;;;;;;;3.13;1.38;;;;;;;14.18;59.98;99060.50;4870317;28;98941;-81
2022/09/17 05:51:08;;;;;;;6.65;1.50;;;;;;;14.16;60.41;99056.28;4870629;28;96722;-83
2022/09/17 05:53:33;;;;;;;8.82;1.70;;;;;;;14.21;60.67;99070.03;4895608;28;101837;-84
2022/09/17 05:55:59;;;;;;;6.28;1.30;;;;;;;14.19;60.76;99059.56;4864633;28;101812;-83
2022/09/17 05:58:25;;;;;;;5.32;2.13;;;;;;;14.24;60.73;99064.53;4863044;28;96876;-83
2022/09/17 06:00:51;;;;;;;4.18;1.23;;;;;;;14.24;60.70;99057.44;4864908;28;96977;-83
2022/09/17 06:03:18;;;;;;;6.22;1.52;;;;;;;14.29;60.87;99070.34;4875972;28;101036;-85
2022/09/17 06:05:57;;;;;;;8.07;1.40;;;;;;;14.18;60.60;99039.41;4868152;28;98028;-84
2022/09/17 06:08:23;;;;;;;6.00;1.50;;;;;;;14.34;60.88;99062.09;4864869;28;96979;-85
2022/09/17 06:10:49;;;;;;;7.03;1.85;;;;;;;14.39;60.77;99070.53;4875730;28;97219;-84
2022/09/17 06:13:16;;;;;;;4.18;1.13;;;;;;;14.40;60.74;99072.25;4863200;28;101527;-84
2022/09/17 06:15:41;;;;;;;6.32;1.60;;;;;;;14.39;60.60;99063.47;4866731;28;100840;-83
2022/09/17 06:18:07;;;;;;;2.25;1.13;;;;;;;14.41;60.35;99071.28;4871452;28;96899;-84
2022/09/17 06:20:32;;;;;;;6.18;1.55;;;;;;;14.46;60.88;99079.75;4885488;28;96808;-84
2022/09/17 06:22:58;;;;;;;5.07;1.27;;;;;;;14.48;60.61;99083.09;4886617;28;98671;-84
2022/09/17 06:25:25;;;;;;;5.30;1.45;;;;;;;14.52;60.69;99094.34;4867783;28;101114;-83
2022/09/17 06:27:50;;;;;;;6.10;1.40;;;;;;;14.53;61.05;99090.75;4852842;28;98465;-82
2022/09/17 06:30:16;;;;;;;5.32;1.60;;;;;;;14.48;61.13;99086.56;4881166;28;97004;-82
2022/09/17 06:32:42;;;;;;;6.30;1.77;;;;;;;14.54;60.91;99087.97;4877713;28;101221;-83
2022/09/17 06:35:08;;;;;;;5.55;1.70;;;;;;;14.52;60.26;99095.19;4877369;28;101552;-84
2022/09/17 06:37:35;;;;;;;8.32;1.98;;;;;;;14.50;60.72;99102.31;4893772;28;97337;-83
2022/09/17 06:40:00;;;;;;;3.20;1.30;;;;;;;14.49;60.76;99100.66;4894753;28;97120;-84
2022/09/17 06:42:27;;;;;;;3.67;1.48;;;;;;;14.46;60.78;99100.84;4878930;28;101273;-84
2022/09/17 06:44:53;;;;;;;3.65;1.20;;;;;;;14.49;61.06;99108.56;4881857;28;100888;-85
2022/09/17 06:47:19;;;;;;;7.97;2.05;;;;;;;14.53;60.95;99117.16;4880709;28;97117;-83
2022/09/17 06:49:44;;;;;;;3.67;1.30;;;;;;;14.48;60.92;99109.50;4865655;28;98952;-81
2022/09/17 06:52:10;;;;;;;2.67;1.23;;;;;;;14.55;61.15;99116.09;4877908;28;100959;-84
2022/09/17 06:54:35;;;;;;;3.67;1.60;;;;;;;14.47;60.80;99094.63;4889880;28;98205;-84
2022/09/17 06:57:01;;;;;;;6.28;1.45;;;;;;;14.55;60.93;99112.59;4877058;28;97370;-83
2022/09/17 06:59:27;;;;;;;6.05;1.73;;;;;;;14.56;60.78;99112.50;4879304;28;96870;-87
2022/09/17 07:01:53;;;;;;;3.65;2.08;;;;;;;14.56;60.48;99106.38;4873660;28;100509;-83
2022/09/17 07:04:18;;;;;;;5.07;1.42;;;;;;;14.50;60.62;99119.00;4900975;28;101689;-84
2022/09/17 07:06:44;;;;;;;6.53;1.85;;;;;;;14.36;60.64;99081.31;4889268;28;97290;-83
2022/09/17 07:09:10;;;;;;;3.67;1.40;;;;;;;14.62;61.17;99129.72;4881304;28;97000;-85
2022/09/17 07:11:37;;;;;;;7.28;1.52;;;;;;;14.61;60.76;99122.75;4870381;28;98813;-85
2022/09/17 07:14:04;;;;;;;4.30;1.40;;;;;;;14.57;60.82;99130.00;4863204;28;101128;-85
2022/09/17 07:16:31;;;;;;;4.53;1.60;;;;;;;14.61;61.02;99134.16;4878818;28;96892;-84
2022/09/17 07:18:57;;;;;;;3.78;1.48;;;;;;;14.61;60.82;99126.22;4877684;28;96818;-84
2022/09/17 07:21:23;;;;;;;8.48;2.00;;;;;;;14.67;60.75;99131.06;4887418;28;101246;-83
2022/09/17 07:23:50;;;;;;;4.35;1.30;;;;;;;14.55;60.90;99118.72;4886054;28;101376;-84
2022/09/17 07:26:16;;;;;;;7.53;1.70;;;;;;;14.68;60.81;99138.03;4876960;28;96923;-85
2022/09/17 07:28:42;;;;;;;5.68;1.60;;;;;;;14.55;60.90;99107.31;4882733;28;97249;-84
2022/09/17 07:31:08;;;;;;;3.80;1.50;;;;;;;14.59;60.68;99108.78;4865541;28;101323;-84
2022/09/17 07:33:35;;;;;;;6.70;1.92;;;;;;;14.71;60.78;99129.91;4881293;28;101498;-81
2022/09/17 07:36:04;;;;;;;5.47;2.05;;;;;;;14.70;60.83;99127.38;4891100;28;97913;-84
2022/09/17 07:38:30;;;;;;;6.88;2.58;;;;;;;14.78;60.83;99145.34;4864461;28;97348;-88
2022/09/17 07:41:03;;;;;;;4.20;1.70;;;;;;;14.70;60.72;99137.94;4866547;28;101072;-81
2022/09/17 07:43:31;;;;;;;4.47;1.70;;;;;;;14.80;60.65;99154.00;4861261;28;101875;-81
2022/09/17 07:45:58;;;;;;;6.47;1.50;;;;;;;14.81;60.51;99161.81;4873805;28;101113;-82
2022/09/17 07:48:24;;;;;;;5.45;1.70;;;;;;;14.84;60.83;99168.69;4867905;28;97534;-83
2022/09/17 07:50:50;;;;;;;4.20;1.70;;;;;;;14.83;60.98;99170.47;4862442;28;98066;-83
2022/09/17 07:53:15;;;;;;;4.60;2.10;;;;;;;14.69;60.98;99139.75;4870752;28;98451;-83
2022/09/17 07:55:41;;;;;;;5.68;1.70;;;;;;;14.81;61.04;99153.91;4881430;28;98124;-83
2022/09/17 07:58:07;;;;;;;9.45;1.85;;;;;;;14.89;60.88;99166.53;4873764;28;97421;-84
2022/09/17 08:00:33;;;;;;;3.78;1.55;;;;;;;14.76;61.09;99134.88;4865542;28;101580;-83
2022/09/17 08:02:58;;;;;;;5.68;2.15;;;;;;;14.96;60.76;99157.25;4895980;28;98639;-83
2022/09/17 08:05:25;;;;;;;3.03;1.45;;;;;;;15.05;60.87;99161.88;4898505;28;97309;-84
2022/09/17 08:07:54;;;;;;;7.88;2.28;;;;;;;15.03;60.59;99153.22;4867322;28;97018;-83
2022/09/17 08:10:22;;;;;;;5.85;1.80;;;;;;;15.05;60.48;99153.13;4894396;28;97395;-82
2022/09/17 08:12:54;;;;;;;3.58;1.50;;;;;;;15.06;60.54;99160.91;4879979;28;100941;-83
2022/09/17 08:15:20;;;;;;;5.82;1.90;;;;;;;15.06;60.61;99155.63;4902303;28;97349;-84
2022/09/17 08:17:46;;;;;;;4.47;1.88;;;;;;;15.08;60.59;99158.19;4898215;28;98251;-87
2022/09/17 08:20:13;;;;;;;6.32;1.60;;;;;;;15.09;60.97;99158.06;4896795;28;97521;-81
2022/09/17 08:22:38;;;;;;;3.55;1.48;;;;;;;15.10;61.09;99156.28;4886398;28;101581;-81
2022/09/17 08:25:05;;;;;;;3.47;1.60;;;;;;;15.02;60.88;99132.19;4877874;28;97380;-81
2022/09/17 08:27:31;;;;;;;3.28;1.88;;;;;;;15.00;61.07;99131.44;4863745;28;98356;-82
2022/09/17 08:29:56;;;;;;;3.05;1.65;;;;;;;15.14;60.86;99152.47;4889227;28;100925;-80
2022/09/17 08:32:22;;;;;;;3.33;1.80;;;;;;;15.10;60.78;99143.06;4875813;28;97893;-80
2022/09/17 08:34:48;;;;;;;4.60;1.60;;;;;;;15.15;60.80;99148.84;4879691;28;96780;-81
2022/09/17 08:37:13;;;;;;;6.03;2.80;;;;;;;15.16;60.85;99161.97;4914435;28;97126;-80
2022/09/17 08:39:39;;;;;;;3.22;1.63;;;;;;;15.15;60.91;99170.00;4880664;28;101259;-80
2022/09/17 08:42:09;;;;;;;3.40;1.80;;;;;;;15.20;60.96;99153.81;4893828;28;101238;-82
2022/09/17 08:44:42;;;;;;;10.57;2.30;;;;;;;15.06;61.08;99131.84;4878043;28;96620;-80
2022/09/17 08:47:32;;;;;;;4.90;2.10;;;;;;;15.07;61.03;99130.06;4875706;28;96879;-80
2022/09/17 08:50:00;;;;;;;6.78;2.13;;;;;;;15.20;61.14;99141.44;4884839;28;101380;-80
2022/09/17 08:52:48;;;;;;;2.97;1.80;;;;;;;15.20;61.31;99128.22;4863465;28;101039;-80
2022/09/17 08:55:53;;;;;;;4.65;2.05;;;;;;;15.43;60.95;99138.94;4875683;28;97313;-80
2022/09/17 08:58:40;;;;;;;6.35;1.90;;;;;;;15.58;60.84;99145.75;4900948;28;97320;-80
2022/09/17 09:01:33;;;;;;;2.20;1.42;;;;;;;15.61;60.15;99141.06;4884793;28;98508;-80
2022/09/17 09:04:30;;;;;;;3.47;1.80;;;;;;;15.70;60.05;99151.97;4892118;28;98487;-79
2022/09/17 09:07:09;;;;;;;8.35;2.03;;;;;;;15.71;60.00;99148.38;4888936;28;98191;-81
2022/09/17 09:09:40;;;;;;;6.22;1.73;;;;;;;15.56;59.97;99137.06;4883848;28;96935;-79
2022/09/17 09:12:13;;;;;;;4.47;1.87;;;;;;;15.61;60.09;99149.00;4892149;28;99676;-79
2022/09/17 09:14:52;;;;;;;5.50;1.88;;;;;;;15.60;59.96;99160.56;4862477;28;101934;-78
2022/09/17 09:17:21;;;;;;;3.50;1.80;;;;;;;15.47;60.10;99149.16;4875634;28;97305;-77
2022/09/17 09:19:46;;;;;;;4.25;1.58;;;;;;;15.50;60.14;99166.63;4880229;28;96952;-76
2022/09/17 09:22:11;;;;;;;2.67;1.60;;;;;;;15.51;60.20;99163.88;4873301;28;100832;-73
2022/09/17 09:24:44;;;;;;;2.28;1.95;;;;;;;15.48;60.24;99169.38;4913394;28;97350;-74
2022/09/17 09:27:17;;;;;;;9.48;1.90;;;;;;;15.50;60.23;99174.56;4895433;28;97098;-74
2022/09/17 09:30:01;;;;;;;3.92;1.88;;;;;;;15.50;60.38;99180.69;4896239;28;97133;-90
2022/09/17 09:33:00;;;;;;;4.10;2.03;;;;;;;15.51;60.47;99192.13;4890082;28;100588;-81
2022/09/17 09:35:32;;;;;;;5.15;1.90;;;;;;;15.50;60.15;99204.47;4874427;28;101331;-80
2022/09/17 09:38:13;;;;;;;3.95;1.90;;;;;;;15.42;60.56;99193.63;4871740;28;96679;-78
2022/09/17 09:40:54;;;;;;;3.38;2.03;;;;;;;15.44;60.44;99219.94;4896795;28;97199;-78
2022/09/17 09:43:45;;;;;;;4.32;1.95;;;;;;;15.39;60.41;99215.00;4863314;28;101320;-79
2022/09/17 09:46:29;;;;;;;4.47;2.00;;;;;;;15.39;60.62;99213.22;4893558;28;97581;-80
2022/09/17 09:49:32;;;;;;;3.40;2.25;;;;;;;15.39;60.80;99207.06;4878957;28;97091;-82
2022/09/17 09:52:32;;;;;;;4.07;2.40;;;;;;;15.39;60.86;99215.00;4878913;28;96921;-85
2022/09/17 09:55:25;;;;;;;5.07;1.70;;;;;;;15.38;60.73;99218.59;4912843;28;98311;-83
2022/09/17 09:58:32;;;;;;;4.22;1.88;;;;;;;15.36;60.98;99209.94;4894931;28;101364;-80
2022/09/17 10:00:58;;;;;;;3.85;2.22;;;;;;;15.40;61.26;99222.81;4876758;28;96800;-80
2022/09/17 10:03:30;;;;;;;3.65;1.80;;;;;;;15.31;61.29;99214.72;4885023;28;97250;-81
2022/09/17 10:06:05;;;;;;;3.50;2.00;;;;;;;15.41;61.58;99215.72;4877722;28;97869;-81
2022/09/17 10:08:32;;;;;;;4.82;1.85;;;;;;;15.40;61.32;99206.13;4879290;28;101804;-82
2022/09/17 10:11:11;;;;;;;3.40;2.50;;;;;;;15.32;61.55;99196.06;4859558;28;96856;-83
2022/09/17 10:13:39;;;;;;;3.78;1.77;;;;;;;15.38;61.51;99208.00;4890599;28;97242;-84
2022/09/17 10:16:23;;;;;;;3.05;1.80;;;;;;;15.39;61.42;99215.00;4872103;28;101459;-83
2022/09/17 10:19:04;;;;;;;5.18;1.98;;;;;;;15.51;61.45;99223.88;4885015;28;97412;-83
2022/09/17 10:21:39;;;;;;;5.40;2.13;;;;;;;15.40;61.26;99209.59;4872514;28;97220;-84
2022/09/17 10:24:20;;;;;;;3.50;1.88;;;;;;;15.53;61.09;99214.88;4876655;28;97075;-84
2022/09/17 10:26:46;;;;;;;3.08;2.00;;;;;;;15.50;61.02;99207.13;4878611;28;97494;-84
2022/09/17 10:29:15;;;;;;;3.78;2.33;;;;;;;15.50;61.17;99216.88;4910867;28;97912;-83
2022/09/17 10:31:47;;;;;;;4.13;2.08;;;;;;;15.54;60.98;99224.47;4878027;28;98366;-81
2022/09/17 10:34:21;;;;;;;3.63;1.88;;;;;;;15.53;61.08;99220.16;4877670;28;97464;-82
2022/09/17 10:36:47;;;;;;;2.22;1.48;;;;;;;15.45;61.15;99200.50;4857228;28;99379;-82
2022/09/17 10:39:21;;;;;;;4.75;1.70;;;;;;;15.57;61.06;99223.41;4876314;28;101292;-81
2022/09/17 10:42:03;;;;;;;4.50;1.80;;;;;;;15.51;61.05;99219.41;4891605;28;97335;-82
2022/09/17 10:44:31;;;;;;;2.85;1.23;;;;;;;15.48;61.24;99216.16;4878282;28;97378;-80
2022/09/17 10:47:06;;;;;;;3.03;1.30;;;;;;;15.46;60.98;99215.41;4859896;28;101413;-81
2022/09/17 10:50:02;;;;;;;2.75;1.40;;;;;;;15.45;61.03;99217.22;4884667;28;97623;-80
2022/09/17 10:52:37;;;;;;;2.38;1.63;;;;;;;15.47;61.33;99225.03;4875607;28;97290;-87
2022/09/17 10:55:34;;;;;;;2.17;1.48;;;;;;;15.52;61.12;99212.31;4875700;28;97704;-82
2022/09/17 10:58:06;;;;;;;2.58;1.30;;;;;;;15.63;61.19;99218.53;4892790;28;101642;-80
2022/09/17 11:00:43;;;;;;;;;;;;;;;15.79;61.18;99212.16;4873628;28;101455;-81
2022/09/17 11:03:43;;;;;;;3.53;1.40;;;;;;;15.94;60.88;99210.16;4887599;28;96812;-82
2022/09/17 11:06:47;;;;;;;1.95;1.20;;;;;;;16.05;60.56;99204.94;4876184;28;97325;-80
2022/09/17 11:09:46;;;;;;;2.00;1.40;;;;;;;16.08;60.14;99207.34;4903806;28;98804;-81
2022/09/17 11:12:30;;;;;;;4.20;1.27;;;;;;;16.13;60.46;99191.13;4881334;28;102304;-82
2022/09/17 11:14:58;;;;;;;2.00;1.25;;;;;;;16.26;60.02;99183.94;4876474;28;97258;-85
2022/09/17 11:17:42;;;;;;;3.47;1.45;;;;;;;16.26;59.30;99186.59;4880631;28;97521;-80
2022/09/17 11:20:33;;;;;;;1.75;1.30;;;;;;;16.18;59.35;99167.81;4871313;28;101333;-82
2022/09/17 11:23:29;;;;;;;3.65;1.70;;;;;;;16.33;59.13;99182.53;4872851;28;101058;-82
2022/09/17 11:26:17;;;;;;;2.28;1.30;;;;;;;16.30;59.19;99182.78;4899771;28;97252;-88
2022/09/17 11:29:11;;;;;;;2.08;1.33;;;;;;;16.33;59.83;99181.69;4878787;28;96919;-81
2022/09/17 11:31:56;;;;;;;2.25;1.40;;;;;;;16.35;59.68;99172.69;4898086;28;98057;-82
2022/09/17 11:34:34;;;;;;;3.33;1.38;;;;;;;16.37;59.65;99167.25;4882031;28;101347;-83
2022/09/17 11:37:10;;;;;;;3.78;1.67;;;;;;;16.49;59.48;99176.91;4877444;28;97230;-83
2022/09/17 11:40:03;;;;;;;2.67;1.60;;;;;;;16.50;59.39;99171.50;4879971;28;96931;-87
2022/09/17 11:42:36;;;;;;;3.88;1.50;;;;;;;16.56;59.42;99172.84;4891049;28;98819;-87
2022/09/17 11:45:17;;;;;;;2.47;1.35;;;;;;;16.49;59.14;99159.22;4886358;28;99739;-87
2022/09/17 11:48:10;;;;;;;2.58;1.40;;;;;;;16.50;58.82;99152.97;4863683;28;97276;-86
2022/09/17 11:50:46;;;;;;;3.35;1.40;;;;;;;16.59;58.27;99161.16;4897821;28;97179;-87
2022/09/17 11:53:29;;;;;;;4.15;1.60;;;;;;;16.62;58.87;99161.75;4891788;28;99913;-87